Time;durP1;ratioP1;P1;durP2;ratioP2;P2;SDS_P1;SDS_P2;PMS_P1;PMS_P2;Temp;Humidity;BMP_temperature;BMP_pressure;BME280_temperature;BME280_humidity;BME280_pressure;Samples;Min_cycle;Max_cycle;Signal;HPM_P1;HPM_P2
2023/08/25 00:01:17;;;;;;;15.93;12.00;;;;;;;;;;8361915;28;20063;-92
2023/08/25 00:05:19;;;;;;;17.70;12.65;;;;;;;;;;8330591;28;20053;-92
2023/08/25 00:09:22;;;;;;;21.52;14.02;;;;;;;;;;8351269;28;20063;-91
2023/08/25 00:13:25;;;;;;;17.38;13.25;;;;;;;;;;8362124;28;20558;-92
2023/08/25 00:17:29;;;;;;;19.50;13.88;;;;;;;;;;8348907;28;20053;-91
2023/08/25 00:21:32;;;;;;;19.88;14.40;;;;;;;;;;8332869;28;20052;-92
2023/08/25 00:25:35;;;;;;;19.98;13.32;;;;;;;;;;8367857;28;20526;-92
2023/08/25 00:29:37;;;;;;;15.57;11.35;;;;;;;;;;8354324;28;20457;-91
2023/08/25 00:33:50;;;;;;;14.13;11.32;;;;;;;;;;8367605;28;20162;-89
2023/08/25 00:37:53;;;;;;;12.68;11.05;;;;;;;;;;8367605;28;20107;-91
2023/08/25 00:41:56;;;;;;;15.73;11.40;;;;;;;;;;8367117;28;20135;-91
2023/08/25 00:46:00;;;;;;;15.88;11.52;;;;;;;;;;8367382;28;20110;-92
2023/08/25 00:50:07;;;;;;;14.75;11.45;;;;;;;;;;8343958;28;20076;-91
2023/08/25 00:54:10;;;;;;;14.60;10.68;;;;;;;;;;8334385;28;20172;-92
2023/08/25 00:58:17;;;;;;;14.02;11.43;;;;;;;;;;8333923;28;20124;-91
2023/08/25 01:02:20;;;;;;;16.38;10.93;;;;;;;;;;8316815;28;20196;-91
2023/08/25 01:06:24;;;;;;;13.38;10.63;;;;;;;;;;8358469;28;20103;-92
2023/08/25 01:10:35;;;;;;;15.48;11.10;;;;;;;;;;8335472;28;20480;-91
2023/08/25 01:14:49;;;;;;;16.10;13.23;;;;;;;;;;8366676;28;20052;-92
2023/08/25 01:18:51;;;;;;;17.55;12.77;;;;;;;;;;8361753;28;20412;-91
2023/08/25 01:23:04;;;;;;;16.98;13.18;;;;;;;;;;8398743;28;20076;-90
2023/08/25 01:27:07;;;;;;;;;;;;;;;;;;8379870;28;20107;-92
2023/08/25 01:31:11;;;;;;;15.95;11.52;;;;;;;;;;8380022;28;20010;-92
2023/08/25 01:35:15;;;;;;;14.07;10.73;;;;;;;;;;8399494;28;20044;-92
2023/08/25 01:39:17;;;;;;;13.00;9.70;;;;;;;;;;8399247;28;20131;-92
2023/08/25 01:43:24;;;;;;;12.35;10.18;;;;;;;;;;8385881;28;20052;-92
2023/08/25 01:47:30;;;;;;;14.95;10.85;;;;;;;;;;8392984;28;20084;-91
2023/08/25 01:51:33;;;;;;;14.10;10.52;;;;;;;;;;8368453;28;20056;-92
2023/08/25 01:55:36;;;;;;;15.32;11.27;;;;;;;;;;8390790;28;20067;-92
2023/08/25 01:59:41;;;;;;;15.43;12.43;;;;;;;;;;8366158;28;20557;-92
2023/08/25 02:03:44;;;;;;;13.55;11.10;;;;;;;;;;8375593;28;20052;-92
2023/08/25 02:07:46;;;;;;;15.52;12.40;;;;;;;;;;8381556;28;20079;-93
2023/08/25 02:11:49;;;;;;;17.25;11.85;;;;;;;;;;8380862;28;20134;-92
2023/08/25 02:15:54;;;;;;;15.70;11.38;;;;;;;;;;8385366;28;20124;-91
2023/08/25 02:19:56;;;;;;;15.75;11.75;;;;;;;;;;8376124;28;20127;-91
2023/08/25 02:23:59;;;;;;;15.60;11.10;;;;;;;;;;8363996;28;20103;-92
2023/08/25 02:28:03;;;;;;;19.85;12.73;;;;;;;;;;8376050;28;20097;-92
2023/08/25 02:32:07;;;;;;;15.52;11.95;;;;;;;;;;8364842;28;20057;-92
2023/08/25 02:36:10;;;;;;;20.05;12.85;;;;;;;;;;8364816;28;20052;-92
2023/08/25 02:40:13;;;;;;;15.18;11.15;;;;;;;;;;8377095;28;20130;-91
2023/08/25 02:44:16;;;;;;;16.20;12.32;;;;;;;;;;8376504;28;20087;-92
2023/08/25 02:48:20;;;;;;;16.35;11.10;;;;;;;;;;8363695;28;20056;-92
2023/08/25 02:52:23;;;;;;;18.95;11.25;;;;;;;;;;8350862;28;20053;-91
2023/08/25 02:56:26;;;;;;;17.33;11.48;;;;;;;;;;8363873;28;20057;-92
2023/08/25 03:00:29;;;;;;;18.58;11.90;;;;;;;;;;8377569;28;20094;-93
2023/08/25 03:04:33;;;;;;;16.13;11.75;;;;;;;;;;8388051;28;20446;-93
2023/08/25 03:08:36;;;;;;;16.50;12.00;;;;;;;;;;8366215;28;20560;-92
2023/08/25 03:12:39;;;;;;;16.52;12.20;;;;;;;;;;8368638;28;20068;-92
2023/08/25 03:16:42;;;;;;;14.43;11.32;;;;;;;;;;8371961;28;20520;-93
2023/08/25 03:20:51;;;;;;;15.20;10.88;;;;;;;;;;8369478;28;20673;-91
2023/08/25 03:24:54;;;;;;;14.00;10.48;;;;;;;;;;8361453;28;20056;-92
2023/08/25 03:28:57;;;;;;;16.63;10.60;;;;;;;;;;8392082;28;20107;-91
2023/08/25 03:33:00;;;;;;;16.38;10.45;;;;;;;;;;8387900;28;20131;-91
2023/08/25 03:37:05;;;;;;;13.85;9.73;;;;;;;;;;8376289;28;20127;-92
2023/08/25 03:41:08;;;;;;;13.77;10.25;;;;;;;;;;8370772;28;20132;-92
2023/08/25 03:45:11;;;;;;;15.60;9.55;;;;;;;;;;8373472;28;20144;-93
2023/08/25 03:49:14;;;;;;;13.93;10.57;;;;;;;;;;8376396;28;20045;-92
2023/08/25 03:53:18;;;;;;;13.63;10.27;;;;;;;;;;8382309;28;20639;-92
2023/08/25 03:57:21;;;;;;;12.35;9.93;;;;;;;;;;8382014;28;20469;-92
2023/08/25 04:01:24;;;;;;;12.98;10.10;;;;;;;;;;8377996;28;20131;-91
2023/08/25 04:05:27;;;;;;;14.10;9.38;;;;;;;;;;8351405;28;20872;-91
2023/08/25 04:09:32;;;;;;;15.75;10.27;;;;;;;;;;8364710;28;20202;-92
2023/08/25 04:13:35;;;;;;;13.50;10.10;;;;;;;;;;8373325;28;20084;-92
2023/08/25 04:17:38;;;;;;;15.15;10.70;;;;;;;;;;8368784;28;20049;-92
2023/08/25 04:21:40;;;;;;;14.35;9.80;;;;;;;;;;8363172;28;20057;-90
2023/08/25 04:25:46;;;;;;;15.63;9.07;;;;;;;;;;8454091;22;20577;-93
2023/08/25 04:29:51;;;;;;;13.75;8.82;;;;;;;;;;8399195;28;20492;-91
2023/08/25 04:33:54;;;;;;;12.32;9.30;;;;;;;;;;8421150;28;20165;-92
2023/08/25 04:37:57;;;;;;;13.63;8.93;;;;;;;;;;8421122;28;20106;-92
2023/08/25 04:42:01;;;;;;;12.32;8.52;;;;;;;;;;8411615;28;20144;-90
2023/08/25 04:46:05;;;;;;;12.60;9.27;;;;;;;;;;8416580;28;20135;-91
2023/08/25 04:50:09;;;;;;;11.60;8.18;;;;;;;;;;8417206;28;20563;-93
2023/08/25 04:54:11;;;;;;;11.75;8.05;;;;;;;;;;8375504;28;20555;-92
2023/08/25 04:58:17;;;;;;;11.18;7.63;;;;;;;;;;8429988;28;20052;-90
2023/08/25 05:02:20;;;;;;;11.82;8.00;;;;;;;;;;8419215;28;20555;-89
2023/08/25 05:06:23;;;;;;;11.30;7.50;;;;;;;;;;8432025;28;20059;-91
2023/08/25 05:10:26;;;;;;;10.77;6.65;;;;;;;;;;8419561;28;20048;-91
2023/08/25 05:14:30;;;;;;;10.52;7.18;;;;;;;;;;8415786;28;20056;-91
2023/08/25 05:18:37;;;;;;;12.60;7.15;;;;;;;;;;8401812;28;20119;-91
2023/08/25 05:22:40;;;;;;;12.80;6.68;;;;;;;;;;8401464;28;20091;-91
2023/08/25 05:26:44;;;;;;;10.52;6.50;;;;;;;;;;8432393;28;20063;-91
2023/08/25 05:30:49;;;;;;;10.73;6.50;;;;;;;;;;8410717;28;20056;-92
2023/08/25 05:35:11;;;;;;;13.10;6.75;;;;;;;;;;8416988;28;20052;-92
2023/08/25 05:39:18;;;;;;;10.02;6.43;;;;;;;;;;8416569;28;20048;-91
2023/08/25 05:43:21;;;;;;;14.25;6.50;;;;;;;;;;8409379;28;20473;-90
2023/08/25 05:47:27;;;;;;;16.20;6.38;;;;;;;;;;8400117;28;20048;-90
2023/08/25 05:51:30;;;;;;;14.45;6.25;;;;;;;;;;8415786;28;20056;-92
2023/08/25 05:55:32;;;;;;;11.35;6.18;;;;;;;;;;8424063;28;20056;-92
2023/08/25 05:59:36;;;;;;;13.85;8.80;;;;;;;;;;8431385;28;20052;-91
2023/08/25 06:03:40;;;;;;;34.03;31.35;;;;;;;;;;8417682;28;20059;-91
2023/08/25 06:07:43;;;;;;;15.77;11.68;;;;;;;;;;8415217;28;20060;-92
2023/08/25 06:11:46;;;;;;;15.43;7.97;;;;;;;;;;8385384;28;20119;-91
2023/08/25 06:15:50;;;;;;;9.30;6.10;;;;;;;;;;8389456;28;20531;-91
2023/08/25 06:19:54;;;;;;;17.70;11.95;;;;;;;;;;8390157;28;20075;-90
2023/08/25 06:23:57;;;;;;;11.75;6.25;;;;;;;;;;8388695;28;20057;-91
2023/08/25 06:28:01;;;;;;;22.20;13.32;;;;;;;;;;8388882;28;20622;-90
2023/08/25 06:37:42;;;;;;;19.73;16.40;;;;;;;;;;8418851;28;20054;-89
2023/08/25 06:41:47;;;;;;;12.68;7.55;;;;;;;;;;8453101;28;20177;-93
2023/08/25 06:45:54;;;;;;;20.77;13.88;;;;;;;;;;8432122;28;20062;-90
2023/08/25 06:49:59;;;;;;;13.35;7.57;;;;;;;;;;8434288;28;20053;-91
2023/08/25 06:54:05;;;;;;;10.63;7.28;;;;;;;;;;8402897;28;20067;-89
2023/08/25 06:58:17;;;;;;;15.05;13.05;;;;;;;;;;8422745;28;20127;-90
2023/08/25 07:02:21;;;;;;;18.23;16.40;;;;;;;;;;8447424;22;20561;-91
2023/08/25 07:06:27;;;;;;;11.10;6.90;;;;;;;;;;8450549;28;20134;-91
2023/08/25 07:10:37;;;;;;;18.30;16.35;;;;;;;;;;8451522;28;20180;-91
2023/08/25 07:14:44;;;;;;;21.20;16.38;;;;;;;;;;8441633;28;20087;-90
2023/08/25 07:23:51;;;;;;;14.73;10.10;;;;;;;;;;8382189;28;20070;-90
2023/08/25 07:28:02;;;;;;;14.07;9.77;;;;;;;;;;8461733;28;20482;-90
2023/08/25 07:32:15;;;;;;;11.75;9.80;;;;;;;;;;8446600;28;20052;-91
2023/08/25 07:36:24;;;;;;;13.05;9.00;;;;;;;;;;8465094;28;20827;-90
2023/08/25 07:40:31;;;;;;;18.17;12.90;;;;;;;;;;8446406;28;20467;-88
2023/08/25 07:44:39;;;;;;;14.80;11.05;;;;;;;;;;8461007;28;20059;-91
2023/08/25 07:48:43;;;;;;;11.30;9.20;;;;;;;;;;8464368;28;20138;-89
2023/08/25 07:52:49;;;;;;;13.15;8.98;;;;;;;;;;8450035;28;20051;-92
2023/08/25 07:56:52;;;;;;;14.32;10.95;;;;;;;;;;8463149;28;20059;-91
2023/08/25 08:01:02;;;;;;;17.58;11.02;;;;;;;;;;8464163;28;20055;-89
2023/08/25 08:05:07;;;;;;;29.70;14.50;;;;;;;;;;8463473;28;20518;-90
2023/08/25 08:09:09;;;;;;;15.38;11.98;;;;;;;;;;8453879;28;20055;-92
2023/08/25 08:13:12;;;;;;;16.55;9.98;;;;;;;;;;8464071;28;20130;-91
2023/08/25 08:17:17;;;;;;;16.40;10.70;;;;;;;;;;8463721;28;20047;-92
2023/08/25 08:21:24;;;;;;;11.63;8.27;;;;;;;;;;8463885;28;20054;-90
2023/08/25 08:25:29;;;;;;;12.32;8.82;;;;;;;;;;8463531;28;20051;-92
2023/08/25 08:29:36;;;;;;;11.00;8.73;;;;;;;;;;8460017;28;20070;-89
2023/08/25 08:33:43;;;;;;;14.02;8.35;;;;;;;;;;8442971;28;20094;-89
2023/08/25 08:37:46;;;;;;;15.35;9.48;;;;;;;;;;8432110;28;20066;-89
2023/08/25 08:42:01;;;;;;;16.15;12.15;;;;;;;;;;8458497;28;20059;-90
2023/08/25 08:46:14;;;;;;;19.13;12.60;;;;;;;;;;8432313;28;20055;-88
2023/08/25 08:50:22;;;;;;;17.92;12.80;;;;;;;;;;8456522;28;20132;-91
2023/08/25 08:54:27;;;;;;;12.80;9.68;;;;;;;;;;8441515;28;20054;-89
2023/08/25 08:58:30;;;;;;;10.77;7.82;;;;;;;;;;8442984;28;20052;-89
2023/08/25 09:02:36;;;;;;;10.13;7.60;;;;;;;;;;8449210;28;20834;-89
2023/08/25 09:06:51;;;;;;;13.00;7.57;;;;;;;;;;8461228;28;20060;-90
2023/08/25 09:10:56;;;;;;;12.77;7.03;;;;;;;;;;8461132;28;20132;-89
2023/08/25 09:15:00;;;;;;;32.25;28.92;;;;;;;;;;8458963;28;20192;-90
2023/08/25 09:19:04;;;;;;;10.25;7.22;;;;;;;;;;8455145;28;20055;-90
2023/08/25 09:23:09;;;;;;;11.57;6.70;;;;;;;;;;8460699;28;20054;-90
2023/08/25 09:27:26;;;;;;;7.50;5.82;;;;;;;;;;8456170;28;20074;-91
2023/08/25 09:31:30;;;;;;;21.65;12.02;;;;;;;;;;8429025;28;20067;-88
2023/08/25 09:35:34;;;;;;;13.98;6.80;;;;;;;;;;8447108;28;20079;-89
2023/08/25 09:39:46;;;;;;;8.88;5.72;;;;;;;;;;8447225;28;20052;-91
2023/08/25 09:43:50;;;;;;;10.38;5.68;;;;;;;;;;8443391;28;20134;-91
2023/08/25 09:47:53;;;;;;;10.50;5.50;;;;;;;;;;8444627;28;20052;-91
2023/08/25 09:51:57;;;;;;;13.90;5.70;;;;;;;;;;8452198;28;20134;-91
2023/08/25 09:56:05;;;;;;;10.60;5.90;;;;;;;;;;8459791;28;20057;-92
2023/08/25 10:00:12;;;;;;;19.20;13.15;;;;;;;;;;8441834;28;20533;-90
2023/08/25 10:04:25;;;;;;;10.48;5.53;;;;;;;;;;8439561;28;20337;-90
2023/08/25 10:08:32;;;;;;;8.10;5.53;;;;;;;;;;8417048;28;20143;-91
2023/08/25 10:12:38;;;;;;;18.48;11.23;;;;;;;;;;8447484;28;20079;-91
2023/08/25 10:16:46;;;;;;;9.25;5.25;;;;;;;;;;8441438;28;20466;-90
2023/08/25 10:20:58;;;;;;;12.88;6.30;;;;;;;;;;8454186;28;20062;-89
2023/08/25 10:25:04;;;;;;;6.45;4.75;;;;;;;;;;8448752;28;20056;-92
2023/08/25 10:29:11;;;;;;;8.40;4.97;;;;;;;;;;8459899;28;20078;-89
2023/08/25 10:33:15;;;;;;;8.63;5.57;;;;;;;;;;8458875;28;20051;-91
2023/08/25 10:37:26;;;;;;;11.02;5.70;;;;;;;;;;8445190;28;20369;-89
2023/08/25 10:41:28;;;;;;;8.43;4.85;;;;;;;;;;8459589;28;20638;-89
2023/08/25 10:45:40;;;;;;;6.80;4.45;;;;;;;;;;8456200;28;20047;-90
2023/08/25 10:49:46;;;;;;;12.77;5.72;;;;;;;;;;8448466;28;20051;-90
2023/08/25 10:53:52;;;;;;;14.13;7.40;;;;;;;;;;8452592;28;20075;-91
2023/08/25 10:58:03;;;;;;;15.75;6.88;;;;;;;;;;8432561;28;20328;-88
2023/08/25 11:02:08;;;;;;;7.10;4.38;;;;;;;;;;8434338;28;20044;-87
2023/08/25 11:06:39;;;;;;;18.27;13.95;;;;;;;;;;8454520;28;20130;-89
2023/08/25 11:10:41;;;;;;;34.58;17.92;;;;;;;;;;8446627;28;20493;-88
2023/08/25 11:14:45;;;;;;;27.65;15.75;;;;;;;;;;8451542;28;20483;-91
2023/08/25 11:18:50;;;;;;;23.05;10.70;;;;;;;;;;8439588;28;20076;-88
2023/08/25 11:22:53;;;;;;;17.75;9.73;;;;;;;;;;8425058;28;20063;-91
2023/08/25 11:26:57;;;;;;;14.32;7.10;;;;;;;;;;8450998;28;20052;-89
2023/08/25 11:31:01;;;;;;;13.23;5.65;;;;;;;;;;8445395;28;20051;-86
2023/08/25 11:35:15;;;;;;;10.35;5.18;;;;;;;;;;8439485;28;20134;-90
2023/08/25 11:39:20;;;;;;;19.90;7.55;;;;;;;;;;8448956;28;20071;-88
2023/08/25 11:43:28;;;;;;;9.88;4.90;;;;;;;;;;8438484;28;20121;-90
2023/08/25 11:47:35;;;;;;;25.23;8.57;;;;;;;;;;8447230;28;20134;-89
2023/08/25 11:51:44;;;;;;;18.27;7.10;;;;;;;;;;8436112;28;20048;-87
2023/08/25 11:56:02;;;;;;;15.88;6.32;;;;;;;;;;8437860;28;20060;-89
2023/08/25 12:00:07;;;;;;;15.10;6.47;;;;;;;;;;8455321;28;20510;-90
2023/08/25 12:04:24;;;;;;;8.48;5.35;;;;;;;;;;8442173;28;20494;-90
2023/08/25 12:08:51;;;;;;;7.20;4.72;;;;;;;;;;8451573;28;20398;-88
2023/08/25 12:12:59;;;;;;;18.80;8.50;;;;;;;;;;8455039;28;20058;-90
2023/08/25 12:17:01;;;;;;;6.90;4.57;;;;;;;;;;8438967;28;20058;-90
2023/08/25 12:21:09;;;;;;;12.05;6.03;;;;;;;;;;8445905;28;20048;-89
2023/08/25 12:25:18;;;;;;;7.68;4.90;;;;;;;;;;8446232;28;20506;-89
2023/08/25 13:01:50;;;;;;;9.00;6.50;;;;;;;;;;8449478;27;1499446;-90
2023/08/25 13:05:55;;;;;;;10.80;6.38;;;;;;;;;;8474715;28;21943;-93
2023/08/25 13:10:00;;;;;;;9.05;6.38;;;;;;;;;;8474203;28;20051;-93
2023/08/25 13:14:04;;;;;;;10.73;6.70;;;;;;;;;;8470507;28;20092;-92
2023/08/25 13:18:09;;;;;;;10.20;6.97;;;;;;;;;;8469466;28;20774;-90
2023/08/25 13:22:12;;;;;;;8.90;6.80;;;;;;;;;;8473769;28;20507;-92
2023/08/25 13:26:19;;;;;;;15.40;7.07;;;;;;;;;;8482626;28;20203;-90
2023/08/25 13:30:25;;;;;;;12.75;7.32;;;;;;;;;;8466807;28;20047;-93
2023/08/25 13:34:31;;;;;;;12.88;7.35;;;;;;;;;;8471510;28;20860;-90
2023/08/25 13:38:37;;;;;;;11.15;7.30;;;;;;;;;;8471804;28;20050;-93
2023/08/25 13:42:43;;;;;;;12.75;7.72;;;;;;;;;;8469709;28;20052;-92
2023/08/25 13:46:51;;;;;;;13.57;6.88;;;;;;;;;;8467913;28;20467;-91
2023/08/25 13:51:00;;;;;;;12.02;7.20;;;;;;;;;;8462841;28;20123;-91
2023/08/25 13:55:09;;;;;;;11.73;7.22;;;;;;;;;;8465807;28;20042;-91
2023/08/25 13:59:12;;;;;;;10.32;6.90;;;;;;;;;;8453206;28;20138;-91
2023/08/25 14:03:14;;;;;;;12.25;7.68;;;;;;;;;;8460169;28;20046;-91
2023/08/25 14:07:19;;;;;;;10.10;7.53;;;;;;;;;;8460628;28;20043;-91
2023/08/25 14:11:22;;;;;;;15.23;7.85;;;;;;;;;;8456218;28;20052;-92
2023/08/25 14:15:26;;;;;;;10.48;7.78;;;;;;;;;;8459607;28;20115;-91
2023/08/25 14:19:29;;;;;;;13.02;7.55;;;;;;;;;;8445083;28;20096;-89
2023/08/25 14:23:33;;;;;;;12.65;7.93;;;;;;;;;;8449958;28;20379;-90
2023/08/25 14:27:36;;;;;;;11.70;7.63;;;;;;;;;;8442158;28;20044;-88
2023/08/25 14:31:40;;;;;;;12.95;7.63;;;;;;;;;;8446206;28;20060;-89
2023/08/25 14:35:42;;;;;;;10.00;7.80;;;;;;;;;;8432831;28;20096;-89
2023/08/25 14:39:47;;;;;;;12.00;7.57;;;;;;;;;;8450059;28;20576;-87
2023/08/25 14:43:50;;;;;;;11.70;7.00;;;;;;;;;;8466451;28;20036;-92
2023/08/25 14:47:52;;;;;;;11.85;7.80;;;;;;;;;;8448552;28;20447;-90
2023/08/25 14:51:55;;;;;;;10.25;6.93;;;;;;;;;;8456499;28;20409;-90
2023/08/25 14:56:00;;;;;;;12.88;7.63;;;;;;;;;;8448055;28;20040;-90
2023/08/25 15:00:04;;;;;;;10.13;7.25;;;;;;;;;;8445298;28;20056;-90
2023/08/25 15:04:07;;;;;;;10.65;7.25;;;;;;;;;;8431857;28;20048;-90
2023/08/25 15:08:10;;;;;;;11.15;7.10;;;;;;;;;;8448704;28;20039;-90
2023/08/25 15:12:14;;;;;;;8.52;6.60;;;;;;;;;;8440795;28;20740;-87
2023/08/25 15:16:17;;;;;;;11.93;7.28;;;;;;;;;;8448406;28;20502;-87
2023/08/25 15:20:20;;;;;;;9.23;7.10;;;;;;;;;;8450849;28;20043;-88
2023/08/25 15:24:23;;;;;;;9.80;7.10;;;;;;;;;;8433568;28;20112;-87
2023/08/25 15:28:29;;;;;;;11.43;7.25;;;;;;;;;;8454892;28;20111;-91
2023/08/25 15:32:31;;;;;;;10.38;7.32;;;;;;;;;;8444573;28;20121;-86
2023/08/25 15:36:34;;;;;;;11.35;7.38;;;;;;;;;;8454765;28;20447;-90
2023/08/25 15:40:39;;;;;;;10.45;6.90;;;;;;;;;;8464011;28;20050;-89
2023/08/25 15:44:43;;;;;;;11.18;7.00;;;;;;;;;;8450533;28;20051;-89
2023/08/25 15:48:46;;;;;;;10.10;7.05;;;;;;;;;;8450354;28;20130;-89
2023/08/25 15:52:49;;;;;;;9.75;7.18;;;;;;;;;;8450720;28;20510;-89
2023/08/25 15:56:52;;;;;;;10.63;7.10;;;;;;;;;;8433700;28;20040;-89
2023/08/25 16:01:00;;;;;;;11.85;7.07;;;;;;;;;;8443526;28;20167;-89
2023/08/25 16:05:04;;;;;;;12.18;7.55;;;;;;;;;;8443599;28;20411;-89
2023/08/25 16:09:07;;;;;;;8.27;6.88;;;;;;;;;;8437207;28;20047;-89
2023/08/25 16:13:10;;;;;;;12.43;7.07;;;;;;;;;;8444937;28;20054;-89
2023/08/25 16:17:14;;;;;;;9.48;7.32;;;;;;;;;;8441197;28;20146;-88
2023/08/25 16:21:17;;;;;;;12.98;6.97;;;;;;;;;;8449577;28;20448;-88
2023/08/25 16:25:21;;;;;;;10.18;7.45;;;;;;;;;;8443720;28;20165;-90
2023/08/25 16:29:25;;;;;;;13.57;7.95;;;;;;;;;;8436023;28;20052;-90
2023/08/25 16:33:31;;;;;;;11.55;7.38;;;;;;;;;;8449169;28;20539;-89
2023/08/25 16:37:34;;;;;;;10.45;7.50;;;;;;;;;;8462849;28;20075;-90
2023/08/25 16:41:38;;;;;;;11.02;7.25;;;;;;;;;;8440575;28;20127;-91
2023/08/25 16:45:41;;;;;;;12.48;7.20;;;;;;;;;;8444482;28;20063;-88
2023/08/25 16:49:47;;;;;;;11.02;7.43;;;;;;;;;;8454054;28;20071;-89
2023/08/25 16:53:50;;;;;;;10.68;7.35;;;;;;;;;;8456593;28;20554;-91
2023/08/25 16:58:20;;;;;;;9.75;8.07;;;;;;;;;;8432064;28;20470;-93
2023/08/25 17:02:27;;;;;;;13.23;8.52;;;;;;;;;;8443033;28;20162;-91
2023/08/25 17:06:32;;;;;;;12.93;9.02;;;;;;;;;;8447938;28;20043;-92
2023/08/25 17:10:37;;;;;;;12.32;8.95;;;;;;;;;;8444229;28;20050;-87
2023/08/25 17:14:40;;;;;;;13.60;8.80;;;;;;;;;;8460256;28;20403;-92
2023/08/25 17:18:47;;;;;;;14.55;9.32;;;;;;;;;;8456855;28;20047;-92
2023/08/25 17:22:52;;;;;;;12.93;8.43;;;;;;;;;;8456041;28;20075;-89
2023/08/25 17:26:54;;;;;;;23.73;13.52;;;;;;;;;;8448134;28;20402;-88
2023/08/25 17:31:07;;;;;;;18.48;13.02;;;;;;;;;;8438039;28;20050;-90
2023/08/25 17:35:10;;;;;;;25.25;16.73;;;;;;;;;;8448395;28;20089;-89
2023/08/25 17:39:24;;;;;;;28.40;19.10;;;;;;;;;;8450544;28;20059;-91
2023/08/25 17:43:29;;;;;;;29.38;18.45;;;;;;;;;;8444942;28;20126;-90
2023/08/25 17:47:32;;;;;;;26.80;17.60;;;;;;;;;;8460429;28;20055;-91
2023/08/25 17:51:35;;;;;;;29.85;16.85;;;;;;;;;;8452934;28;20048;-90
2023/08/25 17:55:42;;;;;;;31.23;17.10;;;;;;;;;;8462568;28;20122;-91
2023/08/25 17:59:45;;;;;;;24.02;17.98;;;;;;;;;;8463077;28;20086;-90
2023/08/25 18:03:48;;;;;;;23.67;18.42;;;;;;;;;;8444458;28;20519;-90
2023/08/25 18:07:52;;;;;;;37.72;26.55;;;;;;;;;;8448244;28;20151;-91
2023/08/25 18:11:56;;;;;;;32.88;22.02;;;;;;;;;;8452390;28;20388;-90
2023/08/25 18:15:59;;;;;;;20.15;15.43;;;;;;;;;;8449764;28;20134;-89
2023/08/25 18:20:03;;;;;;;27.77;15.20;;;;;;;;;;8447738;28;20044;-88
2023/08/25 18:24:07;;;;;;;17.05;13.75;;;;;;;;;;8445490;28;20067;-90
2023/08/25 18:28:12;;;;;;;21.92;15.77;;;;;;;;;;8447009;28;20089;-90
2023/08/25 18:32:15;;;;;;;15.30;13.52;;;;;;;;;;8459105;28;20116;-91
2023/08/25 18:36:18;;;;;;;17.30;12.65;;;;;;;;;;8455022;28;20050;-88
2023/08/25 18:40:22;;;;;;;16.77;13.35;;;;;;;;;;8443300;28;20054;-88
2023/08/25 18:44:26;;;;;;;15.57;13.23;;;;;;;;;;8423290;28;20042;-89
2023/08/25 18:48:30;;;;;;;17.58;12.88;;;;;;;;;;8444690;28;20138;-91
2023/08/25 18:52:34;;;;;;;18.80;13.00;;;;;;;;;;8443290;28;20593;-89
2023/08/25 18:56:39;;;;;;;17.42;12.25;;;;;;;;;;8447163;28;20048;-88
2023/08/25 19:00:46;;;;;;;15.40;11.95;;;;;;;;;;8443519;28;20056;-88
2023/08/25 19:04:50;;;;;;;17.67;12.38;;;;;;;;;;8432084;28;20075;-89
2023/08/25 19:08:54;;;;;;;14.85;11.85;;;;;;;;;;8452275;28;20096;-88
2023/08/25 19:12:58;;;;;;;19.13;12.30;;;;;;;;;;8444172;28;20562;-90
2023/08/25 19:17:03;;;;;;;15.77;10.85;;;;;;;;;;8449953;28;20044;-88
2023/08/25 19:21:07;;;;;;;16.88;13.18;;;;;;;;;;8444893;28;20057;-89
2023/08/25 19:25:11;;;;;;;17.75;11.77;;;;;;;;;;8445677;28;20048;-89
2023/08/25 19:29:15;;;;;;;16.90;11.35;;;;;;;;;;8445753;28;20067;-89
2023/08/25 19:33:22;;;;;;;16.98;11.48;;;;;;;;;;8449233;28;20482;-88
2023/08/25 19:37:27;;;;;;;14.38;11.25;;;;;;;;;;8451450;28;20079;-88
2023/08/25 19:41:32;;;;;;;15.25;11.57;;;;;;;;;;8452564;28;20072;-88
2023/08/25 19:45:36;;;;;;;16.90;11.48;;;;;;;;;;8455112;28;20043;-88
2023/08/25 19:49:41;;;;;;;18.83;10.93;;;;;;;;;;8442327;28;20463;-87
2023/08/25 19:53:45;;;;;;;16.02;10.10;;;;;;;;;;8454548;28;20109;-89
2023/08/25 19:57:51;;;;;;;16.10;10.23;;;;;;;;;;8453005;28;20075;-91
2023/08/25 20:01:55;;;;;;;17.50;9.82;;;;;;;;;;8417858;28;20068;-91
2023/08/25 20:06:01;;;;;;;15.63;11.70;;;;;;;;;;8395414;28;20064;-88
2023/08/25 20:10:08;;;;;;;14.48;9.80;;;;;;;;;;8385888;28;20059;-88
2023/08/25 20:14:12;;;;;;;14.60;10.10;;;;;;;;;;8384335;28;20119;-87
2023/08/25 20:18:21;;;;;;;15.20;10.35;;;;;;;;;;8389081;28;20119;-88
2023/08/25 20:22:26;;;;;;;14.90;9.63;;;;;;;;;;8368891;28;20450;-87
2023/08/25 20:26:29;;;;;;;17.50;11.93;;;;;;;;;;8377247;28;20059;-89
2023/08/25 20:30:33;;;;;;;16.23;11.35;;;;;;;;;;8384691;28;20044;-91
2023/08/25 20:34:36;;;;;;;17.23;11.18;;;;;;;;;;8385564;28;20049;-89
2023/08/25 20:38:41;;;;;;;16.70;12.05;;;;;;;;;;8394545;28;20127;-87
2023/08/25 20:42:49;;;;;;;16.13;11.95;;;;;;;;;;8385219;28;20040;-90
2023/08/25 20:46:53;;;;;;;14.90;12.85;;;;;;;;;;8380577;28;20132;-91
2023/08/25 20:50:57;;;;;;;18.77;11.68;;;;;;;;;;8381629;28;20488;-90
2023/08/25 20:55:01;;;;;;;18.10;11.40;;;;;;;;;;8381890;28;20127;-88
2023/08/25 20:59:05;;;;;;;16.10;12.18;;;;;;;;;;8391808;28;20071;-90
2023/08/25 21:03:08;;;;;;;19.40;11.07;;;;;;;;;;8447411;28;20447;-90
2023/08/25 21:07:11;;;;;;;20.10;13.60;;;;;;;;;;8449759;28;20055;-91
2023/08/25 21:11:16;;;;;;;16.63;13.18;;;;;;;;;;8449117;28;20049;-90
2023/08/25 21:15:19;;;;;;;15.50;11.65;;;;;;;;;;8456692;28;20066;-90
2023/08/25 21:19:21;;;;;;;12.40;9.90;;;;;;;;;;8451137;28;20473;-90
2023/08/25 21:23:24;;;;;;;16.50;10.98;;;;;;;;;;8449368;28;20462;-90
2023/08/25 21:27:31;;;;;;;14.73;11.65;;;;;;;;;;8444442;28;20054;-89
2023/08/25 21:31:36;;;;;;;17.48;12.13;;;;;;;;;;8456310;28;20082;-90
2023/08/25 21:35:38;;;;;;;16.25;11.90;;;;;;;;;;8456389;28;20047;-91
2023/08/25 21:39:41;;;;;;;16.08;11.65;;;;;;;;;;8448755;28;20067;-90
2023/08/25 21:43:45;;;;;;;18.33;12.55;;;;;;;;;;8455717;28;20517;-89
2023/08/25 21:47:48;;;;;;;16.80;12.43;;;;;;;;;;8453475;28;20090;-90
2023/08/25 21:51:51;;;;;;;15.15;12.63;;;;;;;;;;8453687;28;20098;-88
2023/08/25 21:55:54;;;;;;;15.23;11.63;;;;;;;;;;8457111;28;20063;-87
2023/08/25 21:59:59;;;;;;;15.40;11.18;;;;;;;;;;8456681;28;20561;-87
2023/08/25 22:04:03;;;;;;;14.00;11.93;;;;;;;;;;8450202;28;20075;-87
2023/08/25 22:08:07;;;;;;;13.88;10.30;;;;;;;;;;8449171;28;20559;-89
2023/08/25 22:12:09;;;;;;;14.45;11.32;;;;;;;;;;8448005;28;20506;-87
2023/08/25 22:16:14;;;;;;;15.95;11.32;;;;;;;;;;8453720;28;20123;-89
2023/08/25 22:20:17;;;;;;;17.60;8.30;;;;;;;;;;8456108;28;20558;-86
2023/08/25 22:24:19;;;;;;;14.50;9.88;;;;;;;;;;8453385;28;20136;-88
2023/08/25 22:28:22;;;;;;;14.10;10.98;;;;;;;;;;8442988;28;20114;-89
2023/08/25 22:32:26;;;;;;;17.90;11.45;;;;;;;;;;8450572;28;20117;-88
2023/08/25 22:36:29;;;;;;;16.10;11.15;;;;;;;;;;8450854;28;20071;-88
2023/08/25 22:40:32;;;;;;;20.48;12.32;;;;;;;;;;8452034;28;22188;-89
2023/08/25 22:44:34;;;;;;;16.40;12.02;;;;;;;;;;8437474;28;20036;-90
2023/08/25 22:48:38;;;;;;;15.25;11.93;;;;;;;;;;8452872;28;20828;-90
2023/08/25 22:52:41;;;;;;;16.95;13.75;;;;;;;;;;8455203;28;20477;-90
2023/08/25 22:56:44;;;;;;;17.10;13.60;;;;;;;;;;8458354;28;20441;-91
2023/08/25 23:00:47;;;;;;;17.45;13.35;;;;;;;;;;8438672;28;20062;-87
2023/08/25 23:04:51;;;;;;;16.48;13.70;;;;;;;;;;8445330;28;20050;-91
2023/08/25 23:08:54;;;;;;;18.92;14.18;;;;;;;;;;8445515;28;20044;-90
2023/08/25 23:12:57;;;;;;;18.38;13.25;;;;;;;;;;8445873;28;20502;-88
2023/08/25 23:16:59;;;;;;;17.17;14.02;;;;;;;;;;8453243;28;20126;-87
2023/08/25 23:21:03;;;;;;;20.33;15.27;;;;;;;;;;8441593;28;20521;-88
2023/08/25 23:25:07;;;;;;;19.05;15.98;;;;;;;;;;8447007;28;20039;-90
2023/08/25 23:29:10;;;;;;;21.88;16.73;;;;;;;;;;8440271;28;20790;-86
2023/08/25 23:33:13;;;;;;;19.75;15.98;;;;;;;;;;8441741;28;20050;-88
2023/08/25 23:37:17;;;;;;;23.55;16.80;;;;;;;;;;8444637;28;20054;-87
2023/08/25 23:41:20;;;;;;;21.23;16.67;;;;;;;;;;8453125;28;20081;-89
2023/08/25 23:45:22;;;;;;;21.17;15.95;;;;;;;;;;8437756;28;20470;-90
2023/08/25 23:49:27;;;;;;;21.88;16.50;;;;;;;;;;8444514;28;20047;-90
2023/08/25 23:53:31;;;;;;;23.02;16.75;;;;;;;;;;8448887;28;20182;-88
2023/08/25 23:57:34;;;;;;;23.55;17.42;;;;;;;;;;8456329;28;20540;-88
